Terminal Aerodrome Forecast
Issued by NWS North Platte, NE

Home | Current Version | Previous Version | Text Only | Print | Product List | Glossary Off
Versions: 1 2 3 4 5 6 7 8 9 10 11 12 13 14 15 16 17 18 19

000
FTUS43 KLBF 290900 AAA
TAFVTN
TAF AMD
KVTN 290944Z 2910/3006 05005KT 2SM BR OVC003
      TEMPO 2910/2913 3/4SM BR OVC002
     FM291600 13012G18KT P6SM -SHRA SCT015 OVC050=

USA.gov is the U.S. government's official web portal to all federal, state and local government web resources and services.